PWSweather.com
Personal Weather Stations
Station Observations
133525
French Quarters West Seneca , West Seneca, NY 14224

French Quarters West Seneca West Seneca, NY 14224

Lat: 42.850058, Lon: -78.799754

Elevation: 603

Station Type: Davis Vantage Vue pro2

http://westsenecaweather.com/

Latest ConditionsUpdated 1:40:01 PM EST Sunday, Jan 26, 2020
Currently Today's Max Today's Min Today's Average
Temperature 35.3°F1.8°C 35.7°F2.1°C 32.8°F0.4°C 34.3°F1.3°C
Dew Point 33.7°F0.9°C 34.1°F1.2°C 31.2°F-0.4°C 32.7°F0.4°C
Winds 5.8 mph NNE9.3 kmh NNE 10.4 mph -16.7 kmh - - 5.3 mph 8.5 kmh
Wind Gusts 12.7 mph20.4 kmh 21.9 mph35.2 kmh - -
Humidity 94% 96% 93% 94%
Pressure 29.74 in1007.1 mb 29.79 in1008.8 mb 29.74 in1007.1 mb -
Precipitation - 0.09 in2.3 mm - -
Hour Temp Dew Point Humidity Winds Wind Gusts Pressure Precip Precip Rate Daily Precip Total
01:40 PM 35.3°F1.8°C 33.7°F0.9°C 94% 5.8 mph NNE9.3 kmh NNE 12.7 mph20.4 kmh 29.74 in1007.1 mb - 0.00 in0.0 mm 0.09 in2.3 mm
01:35 PM 35.3°F1.8°C 33.5°F0.8°C 93% 4.6 mph N7.4 kmh N 8.1 mph13.0 kmh 29.74 in1007.1 mb - 0.00 in0.0 mm 0.09 in2.3 mm
01:30 PM 35.3°F1.8°C 33.7°F0.9°C 94% 6.9 mph NNE11.1 kmh NNE 15.0 mph24.1 kmh 29.74 in1007.1 mb - 0.00 in0.0 mm 0.09 in2.3 mm
01:25 PM 35.3°F1.8°C 33.8°F1.0°C 94% 6.9 mph N11.1 kmh N 19.6 mph31.5 kmh 29.74 in1007.1 mb - 0.00 in0.0 mm 0.09 in2.3 mm
01:20 PM 35.4°F1.9°C 33.6°F0.9°C 93% 9.2 mph NE14.8 kmh NE 21.9 mph35.2 kmh 29.74 in1007.1 mb - 0.00 in0.0 mm 0.09 in2.3 mm
01:15 PM 35.4°F1.9°C 33.6°F0.9°C 93% 8.1 mph NE13.0 kmh NE 16.1 mph25.9 kmh 29.75 in1007.5 mb - 0.00 in0.0 mm 0.09 in2.3 mm
01:10 PM 35.5°F1.9°C 33.7°F0.9°C 93% 5.8 mph NNE9.3 kmh NNE 13.8 mph22.2 kmh 29.74 in1007.1 mb - 0.00 in0.0 mm 0.09 in2.3 mm
01:00 PM 35.5°F1.9°C 33.7°F0.9°C 93% 6.9 mph NNE11.1 kmh NNE 9.2 mph14.8 kmh 29.75 in1007.5 mb - 0.00 in0.0 mm 0.09 in2.3 mm
12:55 PM 35.6°F2.0°C 33.8°F1.0°C 93% 6.9 mph NNE11.1 kmh NNE 11.5 mph18.5 kmh 29.75 in1007.5 mb - 0.00 in0.0 mm 0.09 in2.3 mm
12:50 PM 35.7°F2.1°C 33.9°F1.1°C 93% 5.8 mph NE9.3 kmh NE 10.4 mph16.7 kmh 29.75 in1007.5 mb - 0.00 in0.0 mm 0.09 in2.3 mm
12:45 PM 35.7°F2.1°C 33.9°F1.1°C 93% 8.1 mph N13.0 kmh N 17.3 mph27.8 kmh 29.75 in1007.5 mb - 0.01 in0.3 mm 0.09 in2.3 mm
12:40 PM 35.7°F2.1°C 33.9°F1.1°C 93% 8.1 mph NE13.0 kmh NE 11.5 mph18.5 kmh 29.75 in1007.5 mb - 0.01 in0.3 mm 0.09 in2.3 mm
12:35 PM 35.7°F2.1°C 33.9°F1.1°C 93% 9.2 mph N14.8 kmh N 13.8 mph22.2 kmh 29.75 in1007.5 mb - 0.01 in0.3 mm 0.09 in2.3 mm
12:30 PM 35.7°F2.1°C 33.8°F1.0°C 93% 6.9 mph N11.1 kmh N 12.7 mph20.4 kmh 29.75 in1007.5 mb - 0.01 in0.3 mm 0.09 in2.3 mm
12:25 PM 35.7°F2.1°C 34.1°F1.2°C 94% 9.2 mph NNE14.8 kmh NNE 13.8 mph22.2 kmh 29.76 in1007.8 mb - 0.01 in0.3 mm 0.09 in2.3 mm
12:20 PM 35.6°F2.0°C 34.0°F1.1°C 94% 8.1 mph NNE13.0 kmh NNE 11.5 mph18.5 kmh 29.76 in1007.8 mb - 0.01 in0.3 mm 0.09 in2.3 mm
12:15 PM 35.6°F2.0°C 34.0°F1.1°C 94% 4.6 mph N7.4 kmh N 10.4 mph16.7 kmh 29.76 in1007.8 mb - 0.01 in0.3 mm 0.09 in2.3 mm
12:10 PM 35.6°F2.0°C 34.0°F1.1°C 94% 5.8 mph NNE9.3 kmh NNE 16.1 mph25.9 kmh 29.76 in1007.8 mb - 0.01 in0.3 mm 0.09 in2.3 mm
12:00 PM 35.5°F1.9°C 33.9°F1.1°C 94% 6.9 mph NNE11.1 kmh NNE 15.0 mph24.1 kmh 29.76 in1007.8 mb - 0.01 in0.3 mm 0.09 in2.3 mm
11:55 AM 35.5°F1.9°C 33.9°F1.1°C 94% 6.9 mph NNE11.1 kmh NNE 11.5 mph18.5 kmh 29.77 in1008.1 mb - 0.01 in0.3 mm 0.09 in2.3 mm
11:50 AM 35.4°F1.9°C 33.9°F1.1°C 94% 10.4 mph NE16.7 kmh NE 12.7 mph20.4 kmh 29.77 in1008.1 mb - 0.01 in0.3 mm 0.09 in2.3 mm
11:45 AM 35.5°F1.9°C 33.9°F1.1°C 94% 5.8 mph NNE9.3 kmh NNE 9.2 mph14.8 kmh 29.77 in1008.1 mb - 0.00 in0.0 mm 0.08 in2.0 mm
11:40 AM 35.4°F1.9°C 33.9°F1.1°C 94% 6.9 mph N11.1 kmh N 16.1 mph25.9 kmh 29.77 in1008.1 mb - 0.00 in0.0 mm 0.08 in2.0 mm
11:35 AM 35.4°F1.9°C 33.8°F1.0°C 94% 5.8 mph NNE9.3 kmh NNE 9.2 mph14.8 kmh 29.77 in1008.1 mb - 0.00 in0.0 mm 0.08 in2.0 mm
11:30 AM 35.4°F1.9°C 33.8°F1.0°C 94% 6.9 mph N11.1 kmh N 11.5 mph18.5 kmh 29.77 in1008.1 mb - 0.00 in0.0 mm 0.08 in2.0 mm
11:25 AM 35.4°F1.9°C 33.8°F1.0°C 94% 5.8 mph NNE9.3 kmh NNE 6.9 mph11.1 kmh 29.77 in1008.1 mb - 0.00 in0.0 mm 0.08 in2.0 mm
11:20 AM 35.3°F1.8°C 33.7°F0.9°C 94% 5.8 mph N9.3 kmh N 6.9 mph11.1 kmh 29.77 in1008.1 mb - 0.00 in0.0 mm 0.08 in2.0 mm
11:15 AM 35.3°F1.8°C 33.7°F0.9°C 94% 5.8 mph NNE9.3 kmh NNE 8.1 mph13.0 kmh 29.77 in1008.1 mb - 0.00 in0.0 mm 0.08 in2.0 mm
11:10 AM 35.3°F1.8°C 33.7°F0.9°C 94% 5.8 mph N9.3 kmh N 10.4 mph16.7 kmh 29.77 in1008.1 mb - 0.00 in0.0 mm 0.08 in2.0 mm
11:00 AM 35.3°F1.8°C 33.7°F0.9°C 94% 6.9 mph NNE11.1 kmh NNE 9.2 mph14.8 kmh 29.77 in1008.1 mb - 0.00 in0.0 mm 0.08 in2.0 mm
10:55 AM 35.3°F1.8°C 33.7°F0.9°C 94% 6.9 mph NE11.1 kmh NE 12.7 mph20.4 kmh 29.77 in1008.1 mb - 0.00 in0.0 mm 0.08 in2.0 mm
10:50 AM 35.3°F1.8°C 33.7°F0.9°C 94% 4.6 mph N7.4 kmh N 9.2 mph14.8 kmh 29.77 in1008.1 mb - 0.01 in0.3 mm 0.08 in2.0 mm
10:45 AM 35.2°F1.8°C 33.6°F0.9°C 94% 6.9 mph NE11.1 kmh NE 9.2 mph14.8 kmh 29.77 in1008.1 mb - 0.01 in0.3 mm 0.08 in2.0 mm
10:40 AM 35.2°F1.8°C 33.6°F0.9°C 94% 5.8 mph 9.3 kmh 10.4 mph16.7 kmh 29.77 in1008.1 mb - 0.01 in0.3 mm 0.08 in2.0 mm
10:35 AM 35.2°F1.8°C 33.6°F0.9°C 94% 5.8 mph N9.3 kmh N 13.8 mph22.2 kmh 29.77 in1008.1 mb - 0.01 in0.3 mm 0.08 in2.0 mm
10:30 AM 35.2°F1.8°C 33.6°F0.9°C 94% 4.6 mph NE7.4 kmh NE 6.9 mph11.1 kmh 29.77 in1008.1 mb - 0.01 in0.3 mm 0.08 in2.0 mm
10:25 AM 35.2°F1.8°C 33.6°F0.9°C 94% 4.6 mph N7.4 kmh N 6.9 mph11.1 kmh 29.77 in1008.1 mb - 0.01 in0.3 mm 0.08 in2.0 mm
10:20 AM 35.1°F1.7°C 33.5°F0.8°C 94% 5.8 mph NE9.3 kmh NE 6.9 mph11.1 kmh 29.77 in1008.1 mb - 0.01 in0.3 mm 0.08 in2.0 mm
10:15 AM 35.1°F1.7°C 33.5°F0.8°C 94% 4.6 mph NNE7.4 kmh NNE 8.1 mph13.0 kmh 29.77 in1008.1 mb - 0.01 in0.3 mm 0.08 in2.0 mm
10:10 AM 35.0°F1.7°C 33.4°F0.8°C 94% 8.1 mph NNE13.0 kmh NNE 11.5 mph18.5 kmh 29.77 in1008.1 mb - 0.01 in0.3 mm 0.08 in2.0 mm
10:00 AM 34.8°F1.6°C 33.2°F0.7°C 94% 5.8 mph NNE9.3 kmh NNE 6.9 mph11.1 kmh 29.76 in1007.8 mb - 0.01 in0.3 mm 0.08 in2.0 mm
09:55 AM 34.6°F1.4°C 33.1°F0.6°C 94% 4.6 mph N7.4 kmh N 9.2 mph14.8 kmh 29.76 in1007.8 mb - 0.01 in0.3 mm 0.08 in2.0 mm
09:50 AM 34.6°F1.4°C 32.8°F0.4°C 93% 4.6 mph N7.4 kmh N 8.1 mph13.0 kmh 29.77 in1008.1 mb - 0.00 in0.0 mm 0.07 in1.8 mm
09:45 AM 34.9°F1.6°C 33.1°F0.6°C 93% 4.6 mph N7.4 kmh N 10.4 mph16.7 kmh 29.77 in1008.1 mb - 0.00 in0.0 mm 0.07 in1.8 mm
09:40 AM 35.1°F1.7°C 33.3°F0.7°C 93% 3.5 mph NNW5.6 kmh NNW 4.6 mph7.4 kmh 29.76 in1007.8 mb - 0.00 in0.0 mm 0.07 in1.8 mm
09:35 AM 35.1°F1.7°C 33.3°F0.7°C 93% 4.6 mph N7.4 kmh N 5.8 mph9.3 kmh 29.76 in1007.8 mb - 0.01 in0.3 mm 0.07 in1.8 mm
09:30 AM 35.2°F1.8°C 33.4°F0.8°C 93% 5.8 mph NNE9.3 kmh NNE 10.4 mph16.7 kmh 29.76 in1007.8 mb - 0.01 in0.3 mm 0.07 in1.8 mm
09:25 AM 35.2°F1.8°C 33.4°F0.8°C 93% 5.8 mph N9.3 kmh N 13.8 mph22.2 kmh 29.76 in1007.8 mb - 0.01 in0.3 mm 0.07 in1.8 mm
09:20 AM 35.2°F1.8°C 33.4°F0.8°C 93% 4.6 mph NE7.4 kmh NE 11.5 mph18.5 kmh 29.76 in1007.8 mb - 0.01 in0.3 mm 0.07 in1.8 mm
09:15 AM 35.2°F1.8°C 33.4°F0.8°C 93% 5.8 mph NE9.3 kmh NE 6.9 mph11.1 kmh 29.76 in1007.8 mb - 0.01 in0.3 mm 0.07 in1.8 mm
09:10 AM 35.1°F1.7°C 33.3°F0.7°C 93% 5.8 mph NNE9.3 kmh NNE 8.1 mph13.0 kmh 29.76 in1007.8 mb - 0.01 in0.3 mm 0.07 in1.8 mm
09:00 AM 35.1°F1.7°C 33.3°F0.7°C 93% 4.6 mph NNE7.4 kmh NNE 9.2 mph14.8 kmh 29.76 in1007.8 mb - 0.01 in0.3 mm 0.07 in1.8 mm
08:55 AM 35.1°F1.7°C 33.5°F0.8°C 94% 5.8 mph NE9.3 kmh NE 11.5 mph18.5 kmh 29.76 in1007.8 mb - 0.01 in0.3 mm 0.07 in1.8 mm
08:50 AM 35.0°F1.7°C 33.4°F0.8°C 94% 6.9 mph N11.1 kmh N 13.8 mph22.2 kmh 29.76 in1007.8 mb - 0.01 in0.3 mm 0.07 in1.8 mm
08:45 AM 35.0°F1.7°C 33.4°F0.8°C 94% 5.8 mph NE9.3 kmh NE 9.2 mph14.8 kmh 29.76 in1007.8 mb - 0.01 in0.3 mm 0.07 in1.8 mm
08:40 AM 34.9°F1.6°C 33.3°F0.7°C 94% 5.8 mph NNE9.3 kmh NNE 9.2 mph14.8 kmh 29.76 in1007.8 mb - 0.01 in0.3 mm 0.07 in1.8 mm
08:35 AM 34.8°F1.6°C 33.2°F0.7°C 94% 3.5 mph NE5.6 kmh NE 4.6 mph7.4 kmh 29.76 in1007.8 mb - 0.00 in0.0 mm 0.06 in1.5 mm
08:30 AM 34.8°F1.6°C 33.2°F0.7°C 94% 4.6 mph NE7.4 kmh NE 9.2 mph14.8 kmh 29.76 in1007.8 mb - 0.01 in0.3 mm 0.06 in1.5 mm
08:25 AM 34.7°F1.5°C 33.2°F0.7°C 94% 4.6 mph NE7.4 kmh NE 8.1 mph13.0 kmh 29.76 in1007.8 mb - 0.01 in0.3 mm 0.06 in1.5 mm
08:20 AM 34.6°F1.4°C 33.1°F0.6°C 94% 4.6 mph NE7.4 kmh NE 13.8 mph22.2 kmh 29.76 in1007.8 mb - 0.01 in0.3 mm 0.06 in1.5 mm
08:15 AM 34.6°F1.4°C 33.1°F0.6°C 94% 8.1 mph NNE13.0 kmh NNE 15.0 mph24.1 kmh 29.76 in1007.8 mb - 0.01 in0.3 mm 0.06 in1.5 mm
08:10 AM 34.6°F1.4°C 33.1°F0.6°C 94% 4.6 mph NE7.4 kmh NE 11.5 mph18.5 kmh 29.76 in1007.8 mb - 0.01 in0.3 mm 0.06 in1.5 mm
08:00 AM 34.6°F1.4°C 33.0°F0.6°C 94% 3.5 mph NNE5.6 kmh NNE 6.9 mph11.1 kmh 29.76 in1007.8 mb - 0.02 in0.5 mm 0.06 in1.5 mm
07:55 AM 34.5°F1.4°C 33.0°F0.6°C 94% 4.6 mph NE7.4 kmh NE 10.4 mph16.7 kmh 29.76 in1007.8 mb - 0.02 in0.5 mm 0.06 in1.5 mm
07:50 AM 34.5°F1.4°C 32.9°F0.5°C 94% 6.9 mph N11.1 kmh N 10.4 mph16.7 kmh 29.76 in1007.8 mb - 0.02 in0.5 mm 0.06 in1.5 mm
07:45 AM 34.4°F1.3°C 33.1°F0.6°C 95% 4.6 mph N7.4 kmh N 8.1 mph13.0 kmh 29.76 in1007.8 mb - 0.02 in0.5 mm 0.06 in1.5 mm
07:40 AM 34.4°F1.3°C 33.1°F0.6°C 95% 4.6 mph N7.4 kmh N 9.2 mph14.8 kmh 29.76 in1007.8 mb - 0.02 in0.5 mm 0.06 in1.5 mm
07:35 AM 34.3°F1.3°C 33.0°F0.6°C 95% 4.6 mph NNE7.4 kmh NNE 8.1 mph13.0 kmh 29.75 in1007.5 mb - 0.02 in0.5 mm 0.06 in1.5 mm
07:30 AM 34.2°F1.2°C 33.0°F0.6°C 95% 2.3 mph NE3.7 kmh NE 8.1 mph13.0 kmh 29.75 in1007.5 mb - 0.02 in0.5 mm 0.05 in1.3 mm
07:25 AM 34.1°F1.2°C 32.9°F0.5°C 95% 3.5 mph NE5.6 kmh NE 9.2 mph14.8 kmh 29.75 in1007.5 mb - 0.02 in0.5 mm 0.05 in1.3 mm
07:20 AM 34.1°F1.2°C 32.8°F0.4°C 95% 4.6 mph N7.4 kmh N 10.4 mph16.7 kmh 29.75 in1007.5 mb - 0.02 in0.5 mm 0.05 in1.3 mm
07:15 AM 34.1°F1.2°C 32.8°F0.4°C 95% 2.3 mph N3.7 kmh N 10.4 mph16.7 kmh 29.75 in1007.5 mb - 0.03 in0.8 mm 0.05 in1.3 mm
07:10 AM 34.1°F1.2°C 32.8°F0.4°C 95% 3.5 mph NE5.6 kmh NE 12.7 mph20.4 kmh 29.75 in1007.5 mb - 0.03 in0.8 mm 0.05 in1.3 mm
07:00 AM 34.0°F1.1°C 32.7°F0.4°C 95% 6.9 mph NNE11.1 kmh NNE 10.4 mph16.7 kmh 29.75 in1007.5 mb - 0.02 in0.5 mm 0.04 in1.0 mm
06:55 AM 34.0°F1.1°C 32.7°F0.4°C 95% 3.5 mph NNE5.6 kmh NNE 4.6 mph7.4 kmh 29.75 in1007.5 mb - 0.02 in0.5 mm 0.04 in1.0 mm
06:50 AM 34.0°F1.1°C 32.7°F0.4°C 95% 2.3 mph NNE3.7 kmh NNE 4.6 mph7.4 kmh 29.76 in1007.8 mb - 0.02 in0.5 mm 0.04 in1.0 mm
06:45 AM 34.0°F1.1°C 32.7°F0.4°C 95% 4.6 mph NE7.4 kmh NE 11.5 mph18.5 kmh 29.76 in1007.8 mb - 0.02 in0.5 mm 0.04 in1.0 mm
06:40 AM 33.9°F1.1°C 32.6°F0.3°C 95% 6.9 mph NE11.1 kmh NE 10.4 mph16.7 kmh 29.75 in1007.5 mb - 0.02 in0.5 mm 0.04 in1.0 mm
06:35 AM 33.9°F1.1°C 32.6°F0.3°C 95% 5.8 mph NE9.3 kmh NE 9.2 mph14.8 kmh 29.75 in1007.5 mb - 0.02 in0.5 mm 0.04 in1.0 mm
06:30 AM 33.9°F1.1°C 32.6°F0.3°C 95% 4.6 mph NE7.4 kmh NE 12.7 mph20.4 kmh 29.75 in1007.5 mb - 0.01 in0.3 mm 0.03 in0.8 mm
06:25 AM 33.9°F1.1°C 32.8°F0.4°C 96% 3.5 mph NNE5.6 kmh NNE 4.6 mph7.4 kmh 29.75 in1007.5 mb - 0.01 in0.3 mm 0.03 in0.8 mm
06:20 AM 33.8°F1.0°C 32.8°F0.4°C 96% 5.8 mph NNE9.3 kmh NNE 16.1 mph25.9 kmh 29.75 in1007.5 mb - 0.01 in0.3 mm 0.03 in0.8 mm
06:10 AM 33.7°F0.9°C 32.7°F0.4°C 96% 3.5 mph NNE5.6 kmh NNE 8.1 mph13.0 kmh 29.75 in1007.5 mb - 0.00 in0.0 mm 0.02 in0.5 mm
06:00 AM 33.5°F0.8°C 32.2°F0.1°C 95% 3.5 mph NE5.6 kmh NE 11.5 mph18.5 kmh 29.75 in1007.5 mb - 0.00 in0.0 mm 0.02 in0.5 mm
05:55 AM 33.3°F0.7°C 32.3°F0.2°C 96% 4.6 mph NNE7.4 kmh NNE 5.8 mph9.3 kmh 29.75 in1007.5 mb - 0.00 in0.0 mm 0.02 in0.5 mm
05:50 AM 33.2°F0.7°C 31.9°F-0.1°C 95% 3.5 mph N5.6 kmh N 8.1 mph13.0 kmh 29.75 in1007.5 mb - 0.00 in0.0 mm 0.02 in0.5 mm
05:45 AM 33.1°F0.6°C 31.8°F-0.1°C 95% 1.2 mph NNE1.9 kmh NNE 5.8 mph9.3 kmh 29.75 in1007.5 mb - 0.00 in0.0 mm 0.02 in0.5 mm
05:40 AM 33.0°F0.6°C 31.7°F-0.2°C 95% 3.5 mph N5.6 kmh N 8.1 mph13.0 kmh 29.75 in1007.5 mb - 0.00 in0.0 mm 0.02 in0.5 mm
05:35 AM 33.0°F0.6°C 31.7°F-0.2°C 95% 4.6 mph N7.4 kmh N 6.9 mph11.1 kmh 29.75 in1007.5 mb - 0.00 in0.0 mm 0.02 in0.5 mm
05:30 AM 32.9°F0.5°C 31.6°F-0.2°C 95% 3.5 mph N5.6 kmh N 8.1 mph13.0 kmh 29.75 in1007.5 mb - 0.00 in0.0 mm 0.02 in0.5 mm
05:25 AM 32.9°F0.5°C 31.6°F-0.2°C 95% 3.5 mph NNW5.6 kmh NNW 8.1 mph13.0 kmh 29.75 in1007.5 mb - 0.00 in0.0 mm 0.02 in0.5 mm
05:20 AM 32.9°F0.5°C 31.6°F-0.2°C 95% 4.6 mph N7.4 kmh N 8.1 mph13.0 kmh 29.75 in1007.5 mb - 0.00 in0.0 mm 0.02 in0.5 mm
05:15 AM 32.9°F0.5°C 31.6°F-0.2°C 95% 5.8 mph N9.3 kmh N 9.2 mph14.8 kmh 29.75 in1007.5 mb - 0.00 in0.0 mm 0.02 in0.5 mm
05:10 AM 32.8°F0.4°C 31.5°F-0.3°C 95% 4.6 mph NNW7.4 kmh NNW 9.2 mph14.8 kmh 29.75 in1007.5 mb - 0.00 in0.0 mm 0.02 in0.5 mm
05:00 AM 32.8°F0.4°C 31.5°F-0.3°C 95% 4.6 mph N7.4 kmh N 4.6 mph7.4 kmh 29.75 in1007.5 mb - 0.00 in0.0 mm 0.02 in0.5 mm
04:55 AM 32.8°F0.4°C 31.5°F-0.3°C 95% 6.9 mph N11.1 kmh N 15.0 mph24.1 kmh 29.75 in1007.5 mb - 0.00 in0.0 mm 0.02 in0.5 mm
04:50 AM 32.8°F0.4°C 31.5°F-0.3°C 95% 4.6 mph N7.4 kmh N 10.4 mph16.7 kmh 29.75 in1007.5 mb - 0.00 in0.0 mm 0.02 in0.5 mm
04:45 AM 32.8°F0.4°C 31.3°F-0.4°C 94% 6.9 mph NNW11.1 kmh NNW 11.5 mph18.5 kmh 29.75 in1007.5 mb - 0.00 in0.0 mm 0.02 in0.5 mm
04:40 AM 32.8°F0.4°C 31.3°F-0.4°C 94% 3.5 mph N5.6 kmh N 8.1 mph13.0 kmh 29.76 in1007.8 mb - 0.00 in0.0 mm 0.02 in0.5 mm
04:35 AM 32.8°F0.4°C 31.3°F-0.4°C 94% 4.6 mph N7.4 kmh N 6.9 mph11.1 kmh 29.76 in1007.8 mb - 0.00 in0.0 mm 0.02 in0.5 mm
04:30 AM 32.8°F0.4°C 31.3°F-0.4°C 94% 5.8 mph NNW9.3 kmh NNW 15.0 mph24.1 kmh 29.76 in1007.8 mb - 0.00 in0.0 mm 0.02 in0.5 mm
04:25 AM 32.8°F0.4°C 31.3°F-0.4°C 94% 5.8 mph NNW9.3 kmh NNW 8.1 mph13.0 kmh 29.76 in1007.8 mb - 0.00 in0.0 mm 0.02 in0.5 mm
04:20 AM 32.8°F0.4°C 31.3°F-0.4°C 94% 4.6 mph N7.4 kmh N 5.8 mph9.3 kmh 29.76 in1007.8 mb - 0.00 in0.0 mm 0.02 in0.5 mm
04:15 AM 32.9°F0.5°C 31.4°F-0.3°C 94% 5.8 mph N9.3 kmh N 6.9 mph11.1 kmh 29.76 in1007.8 mb - 0.00 in0.0 mm 0.02 in0.5 mm
04:10 AM 32.9°F0.5°C 31.4°F-0.3°C 94% 3.5 mph NNW5.6 kmh NNW 8.1 mph13.0 kmh 29.76 in1007.8 mb - 0.00 in0.0 mm 0.02 in0.5 mm
04:00 AM 33.0°F0.6°C 31.5°F-0.3°C 94% 4.6 mph N7.4 kmh N 9.2 mph14.8 kmh 29.76 in1007.8 mb - 0.00 in0.0 mm 0.02 in0.5 mm
03:55 AM 33.0°F0.6°C 31.5°F-0.3°C 94% 3.5 mph N5.6 kmh N 6.9 mph11.1 kmh 29.76 in1007.8 mb - 0.00 in0.0 mm 0.02 in0.5 mm
03:50 AM 33.0°F0.6°C 31.2°F-0.4°C 93% 4.6 mph NNW7.4 kmh NNW 5.8 mph9.3 kmh 29.76 in1007.8 mb - 0.00 in0.0 mm 0.02 in0.5 mm
03:45 AM 33.0°F0.6°C 31.2°F-0.4°C 93% 3.5 mph N5.6 kmh N 6.9 mph11.1 kmh 29.76 in1007.8 mb - 0.00 in0.0 mm 0.02 in0.5 mm
03:40 AM 33.1°F0.6°C 31.3°F-0.4°C 93% 5.8 mph NNW9.3 kmh NNW 9.2 mph14.8 kmh 29.76 in1007.8 mb - 0.00 in0.0 mm 0.02 in0.5 mm
03:35 AM 33.3°F0.7°C 31.5°F-0.3°C 93% 3.5 mph N5.6 kmh N 8.1 mph13.0 kmh 29.77 in1008.1 mb - 0.00 in0.0 mm 0.02 in0.5 mm
03:30 AM 33.4°F0.8°C 31.6°F-0.2°C 93% 6.9 mph N11.1 kmh N 10.4 mph16.7 kmh 29.77 in1008.1 mb - 0.00 in0.0 mm 0.02 in0.5 mm
03:25 AM 33.5°F0.8°C 31.7°F-0.2°C 93% 5.8 mph N9.3 kmh N 11.5 mph18.5 kmh 29.77 in1008.1 mb - 0.00 in0.0 mm 0.02 in0.5 mm
03:20 AM 33.5°F0.8°C 31.7°F-0.2°C 93% 4.6 mph N7.4 kmh N 8.1 mph13.0 kmh 29.77 in1008.1 mb - 0.00 in0.0 mm 0.02 in0.5 mm
03:15 AM 33.5°F0.8°C 31.7°F-0.2°C 93% 6.9 mph NW11.1 kmh NW 11.5 mph18.5 kmh 29.77 in1008.1 mb - 0.00 in0.0 mm 0.02 in0.5 mm
03:10 AM 33.4°F0.8°C 31.9°F-0.1°C 94% 6.9 mph N11.1 kmh N 9.2 mph14.8 kmh 29.77 in1008.1 mb - 0.00 in0.0 mm 0.02 in0.5 mm
03:00 AM 33.3°F0.7°C 31.8°F-0.1°C 94% 4.6 mph NNW7.4 kmh NNW 10.4 mph16.7 kmh 29.77 in1008.1 mb - 0.00 in0.0 mm 0.02 in0.5 mm
02:55 AM 33.3°F0.7°C 31.8°F-0.1°C 94% 4.6 mph NNW7.4 kmh NNW 5.8 mph9.3 kmh 29.77 in1008.1 mb - 0.00 in0.0 mm 0.02 in0.5 mm
02:50 AM 33.4°F0.8°C 31.9°F-0.1°C 94% 6.9 mph NNW11.1 kmh NNW 12.7 mph20.4 kmh 29.77 in1008.1 mb - 0.00 in0.0 mm 0.02 in0.5 mm
02:45 AM 33.5°F0.8°C 32.0°F0.0°C 94% 9.2 mph N14.8 kmh N 11.5 mph18.5 kmh 29.77 in1008.1 mb - 0.00 in0.0 mm 0.02 in0.5 mm
02:40 AM 33.5°F0.8°C 32.0°F0.0°C 94% 5.8 mph NNW9.3 kmh NNW 6.9 mph11.1 kmh 29.77 in1008.1 mb - 0.00 in0.0 mm 0.02 in0.5 mm
02:35 AM 33.5°F0.8°C 32.0°F0.0°C 94% 3.5 mph N5.6 kmh N 5.8 mph9.3 kmh 29.77 in1008.1 mb - 0.00 in0.0 mm 0.02 in0.5 mm
02:30 AM 33.5°F0.8°C 32.0°F0.0°C 94% 5.8 mph N9.3 kmh N 11.5 mph18.5 kmh 29.77 in1008.1 mb - 0.00 in0.0 mm 0.02 in0.5 mm
02:25 AM 33.5°F0.8°C 32.0°F0.0°C 94% 6.9 mph NNW11.1 kmh NNW 10.4 mph16.7 kmh 29.77 in1008.1 mb - 0.01 in0.3 mm 0.02 in0.5 mm
02:20 AM 33.5°F0.8°C 32.0°F0.0°C 94% 3.5 mph NNW5.6 kmh NNW 5.8 mph9.3 kmh 29.77 in1008.1 mb - 0.01 in0.3 mm 0.02 in0.5 mm
02:15 AM 33.5°F0.8°C 32.0°F0.0°C 94% 5.8 mph N9.3 kmh N 9.2 mph14.8 kmh 29.77 in1008.1 mb - 0.01 in0.3 mm 0.02 in0.5 mm
02:10 AM 33.5°F0.8°C 32.0°F0.0°C 94% 5.8 mph NW9.3 kmh NW 5.8 mph9.3 kmh 29.77 in1008.1 mb - 0.01 in0.3 mm 0.02 in0.5 mm
02:00 AM 33.8°F1.0°C 32.3°F0.2°C 94% 3.5 mph N5.6 kmh N 9.2 mph14.8 kmh 29.77 in1008.1 mb - 0.01 in0.3 mm 0.02 in0.5 mm
01:55 AM 33.9°F1.1°C 32.3°F0.2°C 94% 5.8 mph N9.3 kmh N 11.5 mph18.5 kmh 29.77 in1008.1 mb - 0.01 in0.3 mm 0.02 in0.5 mm
01:50 AM 33.9°F1.1°C 32.4°F0.2°C 94% 6.9 mph N11.1 kmh N 11.5 mph18.5 kmh 29.77 in1008.1 mb - 0.01 in0.3 mm 0.02 in0.5 mm
01:45 AM 33.9°F1.1°C 32.4°F0.2°C 94% 3.5 mph NNW5.6 kmh NNW 4.6 mph7.4 kmh 29.77 in1008.1 mb - 0.01 in0.3 mm 0.02 in0.5 mm
01:40 AM 33.9°F1.1°C 32.4°F0.2°C 94% 5.8 mph NNW9.3 kmh NNW 10.4 mph16.7 kmh 29.77 in1008.1 mb - 0.01 in0.3 mm 0.02 in0.5 mm
01:35 AM 34.1°F1.2°C 32.5°F0.3°C 94% 8.1 mph NNW13.0 kmh NNW 10.4 mph16.7 kmh 29.77 in1008.1 mb - 0.01 in0.3 mm 0.02 in0.5 mm
01:30 AM 34.1°F1.2°C 32.6°F0.3°C 94% 3.5 mph NNW5.6 kmh NNW 4.6 mph7.4 kmh 29.77 in1008.1 mb - 0.02 in0.5 mm 0.02 in0.5 mm
01:25 AM 34.1°F1.2°C 32.6°F0.3°C 94% 3.5 mph NNE5.6 kmh NNE 3.5 mph5.6 kmh 29.77 in1008.1 mb - 0.02 in0.5 mm 0.02 in0.5 mm
01:20 AM 34.0°F1.1°C 32.5°F0.3°C 94% 4.6 mph N7.4 kmh N 8.1 mph13.0 kmh 29.77 in1008.1 mb - 0.01 in0.3 mm 0.01 in0.3 mm
01:15 AM 34.0°F1.1°C 32.5°F0.3°C 94% 3.5 mph NNW5.6 kmh NNW 5.8 mph9.3 kmh 29.77 in1008.1 mb - 0.01 in0.3 mm 0.01 in0.3 mm
01:10 AM 34.0°F1.1°C 32.5°F0.3°C 94% 4.6 mph N7.4 kmh N 10.4 mph16.7 kmh 29.77 in1008.1 mb - 0.01 in0.3 mm 0.01 in0.3 mm
01:00 AM 34.1°F1.2°C 32.6°F0.3°C 94% 4.6 mph N7.4 kmh N 11.5 mph18.5 kmh 29.78 in1008.5 mb - 0.01 in0.3 mm 0.01 in0.3 mm
12:55 AM 34.2°F1.2°C 32.7°F0.4°C 94% 4.6 mph N7.4 kmh N 10.4 mph16.7 kmh 29.78 in1008.5 mb - 0.02 in0.5 mm 0.01 in0.3 mm
12:50 AM 34.2°F1.2°C 32.7°F0.4°C 94% 4.6 mph NE7.4 kmh NE 10.4 mph16.7 kmh 29.77 in1008.1 mb - 0.02 in0.5 mm 0.01 in0.3 mm
12:45 AM 34.2°F1.2°C 32.7°F0.4°C 94% 4.6 mph N7.4 kmh N 8.1 mph13.0 kmh 29.78 in1008.5 mb - 0.02 in0.5 mm 0.01 in0.3 mm
12:40 AM 34.2°F1.2°C 32.6°F0.3°C 94% 3.5 mph N5.6 kmh N 11.5 mph18.5 kmh 29.78 in1008.5 mb - 0.02 in0.5 mm 0.01 in0.3 mm
12:35 AM 34.1°F1.2°C 32.6°F0.3°C 94% 3.5 mph N5.6 kmh N 9.2 mph14.8 kmh 29.78 in1008.5 mb - 0.02 in0.5 mm 0.01 in0.3 mm
12:30 AM 34.0°F1.1°C 32.5°F0.3°C 94% 4.6 mph N7.4 kmh N 9.2 mph14.8 kmh 29.78 in1008.5 mb - 0.01 in0.3 mm 0.06 in1.5 mm
12:25 AM 33.9°F1.1°C 32.4°F0.2°C 94% 4.6 mph NE7.4 kmh NE 8.1 mph13.0 kmh 29.78 in1008.5 mb - 0.01 in0.3 mm 0.05 in1.3 mm
12:20 AM 34.0°F1.1°C 32.2°F0.1°C 93% 2.3 mph N3.7 kmh N 3.5 mph5.6 kmh 29.78 in1008.5 mb - 0.01 in0.3 mm 0.04 in1.0 mm
12:15 AM 34.1°F1.2°C 32.3°F0.2°C 93% 3.5 mph N5.6 kmh N 8.1 mph13.0 kmh 29.78 in1008.5 mb - 0.01 in0.3 mm 0.03 in0.8 mm
12:10 AM 34.3°F1.3°C 32.5°F0.3°C 93% 6.9 mph N11.1 kmh N 10.4 mph16.7 kmh 29.79 in1008.8 mb - 0.01 in0.3 mm 0.02 in0.5 mm
12:00 AM 34.4°F1.3°C 32.6°F0.3°C 93% 9.2 mph N14.8 kmh N 11.5 mph18.5 kmh 29.79 in1008.8 mb - 0.01 in0.3 mm 0.01 in0.3 mm